Time,TemperatureF,DewpointF,PressureIn,WindDirection,WindDirectionDegrees,WindSpeedMPH,WindSpeedGustMPH,Humidity,HourlyPrecipIn,Conditions,Clouds,dailyrainin,SoftwareType,DateUTC
2013-01-31 06:00:00,5.0,4.0,-100.00,West,265,9.0,11.0,95,-99.99,,,0.00,,2013-01-31 13:00:00,
2013-01-31 06:30:00,4.0,2.0,-100.00,West,270,6.0,8.0,95,-99.99,,,0.00,,2013-01-31 13:30:00,
2013-01-31 07:11:00,4.0,2.0,-100.00,West,270,6.0,8.0,95,-99.99,,,0.00,,2013-01-31 14:11:00,
2013-01-31 07:21:00,4.0,2.0,-100.00,West,270,6.0,8.0,95,-99.99,,,0.00,,2013-01-31 14:21:00,
2013-01-31 08:51:00,8.0,7.0,-100.00,West,275,6.0,9.0,95,-99.99,,,0.00,,2013-01-31 15:51:00,
2013-01-31 09:03:00,8.0,7.0,-100.00,West,275,6.0,9.0,95,-99.99,,,0.00,,2013-01-31 16:03:00,
2013-01-31 09:12:00,8.0,7.0,-100.00,West,275,6.0,9.0,95,-99.99,,,0.00,,2013-01-31 16:12:00,
2013-01-31 10:00:00,15.0,14.0,-100.00,West,265,7.0,9.0,97,-99.99,,,0.00,,2013-01-31 17:00:00,
2013-01-31 10:12:00,13.0,12.0,-100.00,West,280,7.0,9.0,96,-99.99,,,0.00,,2013-01-31 17:12:00,
2013-01-31 10:22:00,13.0,12.0,-100.00,West,280,7.0,9.0,96,-99.99,,,0.00,,2013-01-31 17:22:00,
2013-01-31 10:31:00,15.0,14.0,-100.00,West,265,7.0,9.0,97,-99.99,,,0.00,,2013-01-31 17:31:00,
2013-01-31 10:43:00,15.0,14.0,-100.00,West,265,7.0,9.0,97,-99.99,,,0.00,,2013-01-31 17:43:00,
2013-01-31 10:53:00,15.0,14.0,-100.00,West,265,7.0,9.0,97,-99.99,,,0.00,,2013-01-31 17:53:00,
2013-01-31 11:00:00,18.0,18.0,-100.00,West,275,7.0,8.0,98,-99.99,,,0.00,,2013-01-31 18:00:00,
2013-01-31 11:12:00,16.0,16.0,-100.00,West,260,7.0,9.0,97,-99.99,,,0.00,,2013-01-31 18:12:00,
2013-01-31 11:21:00,16.0,16.0,-100.00,West,260,7.0,9.0,97,-99.99,,,0.00,,2013-01-31 18:21:00,
2013-01-31 11:32:00,18.0,18.0,-100.00,West,275,7.0,8.0,98,-99.99,,,0.00,,2013-01-31 18:32:00,
2013-01-31 11:43:00,18.0,18.0,-100.00,West,275,7.0,8.0,98,-99.99,,,0.00,,2013-01-31 18:43:00,
2013-01-31 11:52:00,18.0,18.0,-100.00,West,275,7.0,8.0,98,-99.99,,,0.00,,2013-01-31 18:52:00,
2013-01-31 12:12:00,20.0,19.0,-100.00,WNW,285,6.0,8.0,98,-99.99,,,0.00,,2013-01-31 19:12:00,
2013-01-31 12:21:00,20.0,19.0,-100.00,WNW,285,6.0,8.0,98,-99.99,,,0.00,,2013-01-31 19:21:00,
2013-01-31 12:30:00,22.0,20.0,-100.00,West,260,6.0,9.0,95,-99.99,,,0.00,,2013-01-31 19:30:00,
2013-01-31 12:32:00,20.0,20.0,-100.00,West,270,8.0,9.0,97,-99.99,,,0.00,,2013-01-31 19:32:00,
2013-01-31 12:42:00,20.0,20.0,-100.00,West,270,8.0,9.0,97,-99.99,,,0.00,,2013-01-31 19:42:00,
2013-01-31 12:51:00,21.0,20.0,-100.00,West,270,6.0,8.0,96,-99.99,,,0.00,,2013-01-31 19:51:00,
2013-01-31 13:00:00,23.0,21.0,-100.00,WNW,285,6.0,8.0,93,-99.99,,,0.00,,2013-01-31 20:00:00,
2013-01-31 13:02:00,21.0,20.0,-100.00,West,270,6.0,8.0,96,-99.99,,,0.00,,2013-01-31 20:02:00,
2013-01-31 13:11:00,22.0,20.0,-100.00,West,260,6.0,9.0,95,-99.99,,,0.00,,2013-01-31 20:11:00,
2013-01-31 13:21:00,22.0,20.0,-100.00,West,260,6.0,9.0,95,-99.99,,,0.00,,2013-01-31 20:21:00,
2013-01-31 13:52:00,23.0,21.0,-100.00,WNW,285,6.0,8.0,93,-99.99,,,0.00,,2013-01-31 20:52:00,
2013-01-31 14:00:00,25.0,21.0,-100.00,West,260,6.0,7.0,85,-99.99,,,0.00,,2013-01-31 21:00:00,
2013-01-31 14:12:00,24.0,21.0,-100.00,West,265,6.0,8.0,89,-99.99,,,0.00,,2013-01-31 21:12:00,
2013-01-31 14:21:00,24.0,21.0,-100.00,West,265,6.0,8.0,89,-99.99,,,0.00,,2013-01-31 21:21:00,
2013-01-31 14:31:00,25.0,21.0,-100.00,West,260,6.0,7.0,85,-99.99,,,0.00,,2013-01-31 21:31:00,
2013-01-31 14:42:00,25.0,21.0,-100.00,West,260,6.0,7.0,85,-99.99,,,0.00,,2013-01-31 21:42:00,
2013-01-31 14:52:00,25.0,21.0,-100.00,West,260,6.0,7.0,85,-99.99,,,0.00,,2013-01-31 21:52:00,
2013-01-31 15:11:00,25.0,21.0,-100.00,West,260,4.0,6.0,86,-99.99,,,0.00,,2013-01-31 22:11:00,
2013-01-31 15:22:00,25.0,21.0,-100.00,West,260,4.0,6.0,86,-99.99,,,0.00,,2013-01-31 22:22:00,
2013-01-31 15:30:00,26.0,22.0,-100.00,West,265,4.0,6.0,84,-99.99,,,-99.99,,2013-01-31 22:30:00,
2013-01-31 15:32:00,25.0,22.0,-100.00,West,270,5.0,6.0,86,-99.99,,,0.00,,2013-01-31 22:32:00,
2013-01-31 15:42:00,25.0,22.0,-100.00,West,270,5.0,6.0,86,-99.99,,,0.00,,2013-01-31 22:42:00,
2013-01-31 15:51:00,25.0,22.0,-100.00,West,270,5.0,6.0,86,-99.99,,,0.00,,2013-01-31 22:51:00,
2013-01-31 16:00:00,27.0,23.0,-100.00,West,270,5.0,7.0,86,-99.99,,,0.00,,2013-01-31 23:00:00,
2013-01-31 16:12:00,26.0,22.0,-100.00,West,265,4.0,6.0,84,-99.99,,,-99.99,,2013-01-31 23:12:00,
2013-01-31 16:21:00,26.0,22.0,-100.00,West,265,4.0,6.0,84,-99.99,,,-99.99,,2013-01-31 23:21:00,
2013-01-31 16:52:00,27.0,23.0,-100.00,West,270,5.0,7.0,86,-99.99,,,0.00,,2013-01-31 23:52:00,
2013-01-31 17:00:00,26.0,24.0,-100.00,West,265,3.0,4.0,91,-99.99,,,0.00,,2013-02-01 00:00:00,
2013-01-31 17:11:00,27.0,24.0,-100.00,West,270,4.0,6.0,88,-99.99,,,0.00,,2013-02-01 00:11:00,
2013-01-31 17:21:00,27.0,24.0,-100.00,West,270,4.0,6.0,88,-99.99,,,0.00,,2013-02-01 00:21:00,
2013-01-31 17:30:00,24.0,22.0,-100.00,WNW,300,2.0,3.0,93,-99.99,,,0.00,,2013-02-01 00:30:00,
2013-01-31 17:31:00,26.0,24.0,-100.00,West,265,3.0,4.0,91,-99.99,,,0.00,,2013-02-01 00:31:00,
2013-01-31 17:42:00,26.0,24.0,-100.00,West,265,3.0,4.0,91,-99.99,,,0.00,,2013-02-01 00:42:00,
2013-01-31 17:52:00,26.0,24.0,-100.00,West,265,3.0,4.0,91,-99.99,,,0.00,,2013-02-01 00:52:00,
2013-01-31 18:11:00,24.0,22.0,-100.00,WNW,300,2.0,3.0,93,-99.99,,,0.00,,2013-02-01 01:11:00,
2013-01-31 18:21:00,24.0,22.0,-100.00,WNW,300,2.0,3.0,93,-99.99,,,0.00,,2013-02-01 01:21:00,
2013-01-31 20:11:00,28.0,26.0,-100.00,WNW,300,3.0,3.0,93,-99.99,,,0.00,,2013-02-01 03:11:00,
2013-01-31 20:51:00,28.0,26.0,-100.00,WNW,300,3.0,3.0,93,-99.99,,,0.00,,2013-02-01 03:51:00,
2013-01-31 21:02:00,28.0,26.0,-100.00,WNW,300,3.0,3.0,93,-99.99,,,0.00,,2013-02-01 04:02:00,
2013-01-31 23:11:00,29.0,28.0,-100.00,West,270,3.0,4.0,94,-99.99,,,0.00,,2013-02-01 06:11:00,
2013-01-31 23:52:00,29.0,28.0,-100.00,West,270,3.0,4.0,94,-99.99,,,0.00,,2013-02-01 06:52:00,